sensor_id;sensor_type;location;lat;lon;timestamp;temperature;humidity
19330;DHT22;9799;48.214;16.388;2023-03-01T00:00:27;3.60;99.90
19330;DHT22;9799;48.214;16.388;2023-03-01T00:03:49;3.60;99.90
19330;DHT22;9799;48.214;16.388;2023-03-01T00:07:11;3.50;99.90
19330;DHT22;9799;48.214;16.388;2023-03-01T00:10:32;3.50;99.90
19330;DHT22;9799;48.214;16.388;2023-03-01T00:13:55;3.50;99.90
19330;DHT22;9799;48.214;16.388;2023-03-01T00:17:18;3.50;99.90
19330;DHT22;9799;48.214;16.388;2023-03-01T00:20:39;3.60;99.90
19330;DHT22;9799;48.214;16.388;2023-03-01T00:24:01;3.50;99.90
19330;DHT22;9799;48.214;16.388;2023-03-01T00:27:22;3.30;99.90
19330;DHT22;9799;48.214;16.388;2023-03-01T00:30:44;3.40;99.90
19330;DHT22;9799;48.214;16.388;2023-03-01T00:34:06;3.20;99.90
19330;DHT22;9799;48.214;16.388;2023-03-01T00:37:28;3.00;99.90
19330;DHT22;9799;48.214;16.388;2023-03-01T00:40:49;3.10;99.90
19330;DHT22;9799;48.214;16.388;2023-03-01T00:44:11;3.20;99.90
19330;DHT22;9799;48.214;16.388;2023-03-01T00:47:32;3.10;99.90
19330;DHT22;9799;48.214;16.388;2023-03-01T00:50:54;3.30;99.90
19330;DHT22;9799;48.214;16.388;2023-03-01T00:54:16;3.00;99.90
19330;DHT22;9799;48.214;16.388;2023-03-01T00:57:37;3.00;99.90
19330;DHT22;9799;48.214;16.388;2023-03-01T01:00:59;3.00;99.90
19330;DHT22;9799;48.214;16.388;2023-03-01T01:04:20;3.20;99.90
19330;DHT22;9799;48.214;16.388;2023-03-01T01:07:43;3.30;99.90
19330;DHT22;9799;48.214;16.388;2023-03-01T01:11:04;3.40;99.90
19330;DHT22;9799;48.214;16.388;2023-03-01T01:14:25;3.30;99.90
19330;DHT22;9799;48.214;16.388;2023-03-01T01:17:50;3.10;99.90
19330;DHT22;9799;48.214;16.388;2023-03-01T01:21:13;3.00;99.90
19330;DHT22;9799;48.214;16.388;2023-03-01T01:24:35;2.90;99.90
19330;DHT22;9799;48.214;16.388;2023-03-01T01:27:56;2.80;99.90
19330;DHT22;9799;48.214;16.388;2023-03-01T01:31:18;3.10;99.90
19330;DHT22;9799;48.214;16.388;2023-03-01T01:34:39;3.20;99.90
19330;DHT22;9799;48.214;16.388;2023-03-01T01:38:01;3.20;99.90
19330;DHT22;9799;48.214;16.388;2023-03-01T01:41:24;2.90;99.90
19330;DHT22;9799;48.214;16.388;2023-03-01T01:44:47;3.00;99.90
19330;DHT22;9799;48.214;16.388;2023-03-01T01:48:13;3.10;99.90
19330;DHT22;9799;48.214;16.388;2023-03-01T01:51:39;2.90;99.90
19330;DHT22;9799;48.214;16.388;2023-03-01T01:55:06;2.80;99.90
19330;DHT22;9799;48.214;16.388;2023-03-01T01:58:30;2.70;99.90
19330;DHT22;9799;48.214;16.388;2023-03-01T02:01:52;2.90;99.90
19330;DHT22;9799;48.214;16.388;2023-03-01T02:05:17;2.90;99.90
19330;DHT22;9799;48.214;16.388;2023-03-01T02:08:42;2.80;99.90
19330;DHT22;9799;48.214;16.388;2023-03-01T02:12:05;2.80;99.90
19330;DHT22;9799;48.214;16.388;2023-03-01T02:15:31;2.90;99.90
19330;DHT22;9799;48.214;16.388;2023-03-01T02:18:53;2.80;99.90
19330;DHT22;9799;48.214;16.388;2023-03-01T02:22:20;3.10;99.90
19330;DHT22;9799;48.214;16.388;2023-03-01T02:25:49;2.90;99.90
19330;DHT22;9799;48.214;16.388;2023-03-01T02:29:12;2.90;99.90
19330;DHT22;9799;48.214;16.388;2023-03-01T02:32:34;2.80;99.90
19330;DHT22;9799;48.214;16.388;2023-03-01T02:35:56;2.80;99.90
19330;DHT22;9799;48.214;16.388;2023-03-01T02:39:21;2.90;99.90
19330;DHT22;9799;48.214;16.388;2023-03-01T02:42:47;2.80;99.90
19330;DHT22;9799;48.214;16.388;2023-03-01T02:46:16;2.90;99.90
19330;DHT22;9799;48.214;16.388;2023-03-01T02:49:37;3.10;99.90
19330;DHT22;9799;48.214;16.388;2023-03-01T02:53:02;3.00;99.90
19330;DHT22;9799;48.214;16.388;2023-03-01T02:56:25;2.80;99.90
19330;DHT22;9799;48.214;16.388;2023-03-01T02:59:46;2.90;99.90
19330;DHT22;9799;48.214;16.388;2023-03-01T03:03:10;2.60;99.90
19330;DHT22;9799;48.214;16.388;2023-03-01T03:06:34;2.70;99.90
19330;DHT22;9799;48.214;16.388;2023-03-01T03:09:55;2.80;99.90
19330;DHT22;9799;48.214;16.388;2023-03-01T03:13:16;3.00;99.90
19330;DHT22;9799;48.214;16.388;2023-03-01T03:16:40;3.10;99.90
19330;DHT22;9799;48.214;16.388;2023-03-01T03:20:04;3.10;99.90
19330;DHT22;9799;48.214;16.388;2023-03-01T03:23:25;2.80;99.90
19330;DHT22;9799;48.214;16.388;2023-03-01T03:26:47;2.80;99.90
19330;DHT22;9799;48.214;16.388;2023-03-01T03:30:10;2.50;99.90
19330;DHT22;9799;48.214;16.388;2023-03-01T03:33:32;2.60;99.90
19330;DHT22;9799;48.214;16.388;2023-03-01T03:36:56;2.80;99.90
19330;DHT22;9799;48.214;16.388;2023-03-01T03:40:19;2.90;99.90
19330;DHT22;9799;48.214;16.388;2023-03-01T03:43:40;2.90;99.90
19330;DHT22;9799;48.214;16.388;2023-03-01T03:47:02;2.90;99.90
19330;DHT22;9799;48.214;16.388;2023-03-01T03:50:23;2.90;99.90
19330;DHT22;9799;48.214;16.388;2023-03-01T03:53:46;2.90;99.90
19330;DHT22;9799;48.214;16.388;2023-03-01T03:57:07;2.90;99.90
19330;DHT22;9799;48.214;16.388;2023-03-01T04:00:29;2.60;99.90
19330;DHT22;9799;48.214;16.388;2023-03-01T04:03:50;2.60;99.90
19330;DHT22;9799;48.214;16.388;2023-03-01T04:07:14;2.80;99.90
19330;DHT22;9799;48.214;16.388;2023-03-01T04:10:38;2.90;99.90
19330;DHT22;9799;48.214;16.388;2023-03-01T04:14:00;3.10;99.90
19330;DHT22;9799;48.214;16.388;2023-03-01T04:17:21;3.00;99.90
19330;DHT22;9799;48.214;16.388;2023-03-01T04:20:43;3.00;99.90
19330;DHT22;9799;48.214;16.388;2023-03-01T04:24:05;3.00;99.90
19330;DHT22;9799;48.214;16.388;2023-03-01T04:27:28;3.00;99.90
19330;DHT22;9799;48.214;16.388;2023-03-01T04:30:49;2.90;99.90
19330;DHT22;9799;48.214;16.388;2023-03-01T04:34:10;2.90;99.90
19330;DHT22;9799;48.214;16.388;2023-03-01T04:37:33;2.90;99.90
19330;DHT22;9799;48.214;16.388;2023-03-01T04:40:55;2.90;99.90
19330;DHT22;9799;48.214;16.388;2023-03-01T04:44:17;3.00;99.90
19330;DHT22;9799;48.214;16.388;2023-03-01T04:47:40;3.00;99.90
19330;DHT22;9799;48.214;16.388;2023-03-01T04:51:03;3.00;99.90
19330;DHT22;9799;48.214;16.388;2023-03-01T04:54:24;2.90;99.90
19330;DHT22;9799;48.214;16.388;2023-03-01T04:57:46;2.80;99.90
19330;DHT22;9799;48.214;16.388;2023-03-01T05:01:10;2.90;99.90
19330;DHT22;9799;48.214;16.388;2023-03-01T05:04:35;2.90;99.90
19330;DHT22;9799;48.214;16.388;2023-03-01T05:07:58;3.00;99.90
19330;DHT22;9799;48.214;16.388;2023-03-01T05:11:19;3.00;99.90
19330;DHT22;9799;48.214;16.388;2023-03-01T05:14:41;3.20;99.90
19330;DHT22;9799;48.214;16.388;2023-03-01T05:18:04;3.00;99.90
19330;DHT22;9799;48.214;16.388;2023-03-01T05:21:30;2.90;99.90
19330;DHT22;9799;48.214;16.388;2023-03-01T05:24:53;3.00;99.90
19330;DHT22;9799;48.214;16.388;2023-03-01T05:28:15;3.00;99.90
19330;DHT22;9799;48.214;16.388;2023-03-01T05:31:36;2.60;99.90
19330;DHT22;9799;48.214;16.388;2023-03-01T05:34:59;2.70;99.90
19330;DHT22;9799;48.214;16.388;2023-03-01T05:38:20;3.00;99.90
19330;DHT22;9799;48.214;16.388;2023-03-01T05:41:42;3.00;99.90
19330;DHT22;9799;48.214;16.388;2023-03-01T05:45:03;2.90;99.90
19330;DHT22;9799;48.214;16.388;2023-03-01T05:48:29;3.00;99.90
19330;DHT22;9799;48.214;16.388;2023-03-01T05:51:52;3.00;99.90
19330;DHT22;9799;48.214;16.388;2023-03-01T05:55:14;2.90;99.90
19330;DHT22;9799;48.214;16.388;2023-03-01T05:58:36;2.80;99.90
19330;DHT22;9799;48.214;16.388;2023-03-01T06:01:58;2.90;99.90
19330;DHT22;9799;48.214;16.388;2023-03-01T06:05:19;3.00;99.90
19330;DHT22;9799;48.214;16.388;2023-03-01T06:08:42;2.90;99.90
19330;DHT22;9799;48.214;16.388;2023-03-01T06:12:03;2.80;99.90
19330;DHT22;9799;48.214;16.388;2023-03-01T06:15:25;2.60;99.90
19330;DHT22;9799;48.214;16.388;2023-03-01T06:18:46;2.80;99.90
19330;DHT22;9799;48.214;16.388;2023-03-01T06:22:07;3.00;99.90
19330;DHT22;9799;48.214;16.388;2023-03-01T06:25:30;3.20;99.90
19330;DHT22;9799;48.214;16.388;2023-03-01T06:28:51;3.10;99.90
19330;DHT22;9799;48.214;16.388;2023-03-01T06:32:13;3.20;99.90
19330;DHT22;9799;48.214;16.388;2023-03-01T06:35:34;3.30;99.90
19330;DHT22;9799;48.214;16.388;2023-03-01T06:38:55;2.90;99.90
19330;DHT22;9799;48.214;16.388;2023-03-01T06:42:18;2.80;99.90
19330;DHT22;9799;48.214;16.388;2023-03-01T06:45:39;3.10;99.90
19330;DHT22;9799;48.214;16.388;2023-03-01T06:49:01;3.20;99.90
19330;DHT22;9799;48.214;16.388;2023-03-01T06:52:24;3.00;99.90
19330;DHT22;9799;48.214;16.388;2023-03-01T06:55:45;3.20;99.90
19330;DHT22;9799;48.214;16.388;2023-03-01T06:59:08;3.00;99.90
19330;DHT22;9799;48.214;16.388;2023-03-01T07:02:29;3.10;99.90
19330;DHT22;9799;48.214;16.388;2023-03-01T07:05:51;3.00;99.90
19330;DHT22;9799;48.214;16.388;2023-03-01T07:09:12;3.00;99.90
19330;DHT22;9799;48.214;16.388;2023-03-01T07:12:33;3.10;99.90
19330;DHT22;9799;48.214;16.388;2023-03-01T07:15:56;3.10;99.90
19330;DHT22;9799;48.214;16.388;2023-03-01T07:19:17;3.20;99.90
19330;DHT22;9799;48.214;16.388;2023-03-01T07:22:40;3.10;99.90
19330;DHT22;9799;48.214;16.388;2023-03-01T07:26:02;3.20;99.90
19330;DHT22;9799;48.214;16.388;2023-03-01T07:29:23;3.30;99.90
19330;DHT22;9799;48.214;16.388;2023-03-01T07:32:46;3.50;99.90
19330;DHT22;9799;48.214;16.388;2023-03-01T07:36:08;3.50;99.90
19330;DHT22;9799;48.214;16.388;2023-03-01T07:39:29;3.40;99.90
19330;DHT22;9799;48.214;16.388;2023-03-01T07:42:55;3.40;99.90
19330;DHT22;9799;48.214;16.388;2023-03-01T07:46:16;3.30;99.90
19330;DHT22;9799;48.214;16.388;2023-03-01T07:49:40;3.30;99.90
19330;DHT22;9799;48.214;16.388;2023-03-01T07:53:01;3.50;99.90
19330;DHT22;9799;48.214;16.388;2023-03-01T07:56:23;3.60;99.90
19330;DHT22;9799;48.214;16.388;2023-03-01T07:59:44;3.70;99.90
19330;DHT22;9799;48.214;16.388;2023-03-01T08:03:05;3.90;99.90
19330;DHT22;9799;48.214;16.388;2023-03-01T08:06:28;3.50;99.90
19330;DHT22;9799;48.214;16.388;2023-03-01T08:09:49;3.50;99.90
19330;DHT22;9799;48.214;16.388;2023-03-01T08:13:10;3.30;99.90
19330;DHT22;9799;48.214;16.388;2023-03-01T08:16:31;3.20;99.90
19330;DHT22;9799;48.214;16.388;2023-03-01T08:19:54;3.40;99.90
19330;DHT22;9799;48.214;16.388;2023-03-01T08:23:17;3.50;99.90
19330;DHT22;9799;48.214;16.388;2023-03-01T08:26:38;4.00;99.90
19330;DHT22;9799;48.214;16.388;2023-03-01T08:30:00;4.20;99.90
19330;DHT22;9799;48.214;16.388;2023-03-01T08:33:21;4.00;99.90
19330;DHT22;9799;48.214;16.388;2023-03-01T08:36:43;3.80;99.90
19330;DHT22;9799;48.214;16.388;2023-03-01T08:40:08;3.80;99.90
19330;DHT22;9799;48.214;16.388;2023-03-01T08:43:30;4.20;99.90
19330;DHT22;9799;48.214;16.388;2023-03-01T08:46:51;4.30;99.90
19330;DHT22;9799;48.214;16.388;2023-03-01T08:50:14;4.30;99.90
19330;DHT22;9799;48.214;16.388;2023-03-01T08:53:36;4.50;99.90
19330;DHT22;9799;48.214;16.388;2023-03-01T08:57:00;4.70;99.90
19330;DHT22;9799;48.214;16.388;2023-03-01T09:00:22;4.60;99.90
19330;DHT22;9799;48.214;16.388;2023-03-01T09:03:44;4.60;99.90
19330;DHT22;9799;48.214;16.388;2023-03-01T09:07:06;4.70;99.90
19330;DHT22;9799;48.214;16.388;2023-03-01T09:10:27;4.40;99.90
19330;DHT22;9799;48.214;16.388;2023-03-01T09:13:50;4.50;99.90
19330;DHT22;9799;48.214;16.388;2023-03-01T09:17:12;4.80;99.90
19330;DHT22;9799;48.214;16.388;2023-03-01T09:20:33;4.90;99.90
19330;DHT22;9799;48.214;16.388;2023-03-01T09:23:56;4.90;99.90
19330;DHT22;9799;48.214;16.388;2023-03-01T09:27:18;4.70;99.90
19330;DHT22;9799;48.214;16.388;2023-03-01T09:30:41;4.80;99.90
19330;DHT22;9799;48.214;16.388;2023-03-01T09:34:03;5.00;99.90
19330;DHT22;9799;48.214;16.388;2023-03-01T09:37:24;5.20;99.90
19330;DHT22;9799;48.214;16.388;2023-03-01T09:40:45;5.10;99.90
19330;DHT22;9799;48.214;16.388;2023-03-01T09:44:13;5.30;99.90
19330;DHT22;9799;48.214;16.388;2023-03-01T09:47:38;5.50;99.90
19330;DHT22;9799;48.214;16.388;2023-03-01T09:51:03;5.60;99.90
19330;DHT22;9799;48.214;16.388;2023-03-01T09:54:28;5.50;99.90
19330;DHT22;9799;48.214;16.388;2023-03-01T09:57:53;5.40;99.90
19330;DHT22;9799;48.214;16.388;2023-03-01T10:01:26;5.40;99.90
19330;DHT22;9799;48.214;16.388;2023-03-01T10:04:55;5.50;99.90
19330;DHT22;9799;48.214;16.388;2023-03-01T10:08:28;5.40;99.90
19330;DHT22;9799;48.214;16.388;2023-03-01T10:11:54;5.60;99.90
19330;DHT22;9799;48.214;16.388;2023-03-01T10:15:19;5.80;99.90
19330;DHT22;9799;48.214;16.388;2023-03-01T10:18:46;5.80;99.90
19330;DHT22;9799;48.214;16.388;2023-03-01T10:22:15;5.70;99.90
19330;DHT22;9799;48.214;16.388;2023-03-01T10:25:47;5.60;99.90
19330;DHT22;9799;48.214;16.388;2023-03-01T10:29:14;5.60;99.90
19330;DHT22;9799;48.214;16.388;2023-03-01T10:32:35;5.60;99.90
19330;DHT22;9799;48.214;16.388;2023-03-01T10:35:57;5.80;99.90
19330;DHT22;9799;48.214;16.388;2023-03-01T10:39:22;6.00;99.90
19330;DHT22;9799;48.214;16.388;2023-03-01T10:42:47;6.20;99.90
19330;DHT22;9799;48.214;16.388;2023-03-01T10:46:22;6.40;99.90
19330;DHT22;9799;48.214;16.388;2023-03-01T10:49:53;6.40;99.90
19330;DHT22;9799;48.214;16.388;2023-03-01T10:53:23;6.40;99.90
19330;DHT22;9799;48.214;16.388;2023-03-01T10:56:49;6.30;99.90
19330;DHT22;9799;48.214;16.388;2023-03-01T11:00:23;6.30;99.90
19330;DHT22;9799;48.214;16.388;2023-03-01T11:03:44;6.30;99.90
19330;DHT22;9799;48.214;16.388;2023-03-01T11:07:06;6.40;99.90
19330;DHT22;9799;48.214;16.388;2023-03-01T11:10:29;6.80;99.90
19330;DHT22;9799;48.214;16.388;2023-03-01T11:13:54;7.20;99.90
19330;DHT22;9799;48.214;16.388;2023-03-01T11:17:21;7.00;99.90
19330;DHT22;9799;48.214;16.388;2023-03-01T11:20:42;7.20;99.90
19330;DHT22;9799;48.214;16.388;2023-03-01T11:24:06;7.30;99.90
19330;DHT22;9799;48.214;16.388;2023-03-01T11:27:32;7.50;99.90
19330;DHT22;9799;48.214;16.388;2023-03-01T11:30:57;7.60;99.90
19330;DHT22;9799;48.214;16.388;2023-03-01T11:34:27;7.40;99.90
19330;DHT22;9799;48.214;16.388;2023-03-01T11:37:59;6.90;99.90
19330;DHT22;9799;48.214;16.388;2023-03-01T11:41:26;6.90;99.90
19330;DHT22;9799;48.214;16.388;2023-03-01T11:44:52;6.90;99.90
19330;DHT22;9799;48.214;16.388;2023-03-01T11:48:31;7.10;99.90
19330;DHT22;9799;48.214;16.388;2023-03-01T11:52:00;7.00;99.90
19330;DHT22;9799;48.214;16.388;2023-03-01T11:55:45;7.10;99.90
19330;DHT22;9799;48.214;16.388;2023-03-01T11:59:36;7.30;99.90
19330;DHT22;9799;48.214;16.388;2023-03-01T12:03:27;7.50;99.90
19330;DHT22;9799;48.214;16.388;2023-03-01T12:06:55;7.80;99.90
19330;DHT22;9799;48.214;16.388;2023-03-01T12:10:23;7.40;99.90
19330;DHT22;9799;48.214;16.388;2023-03-01T12:14:05;7.30;99.90
19330;DHT22;9799;48.214;16.388;2023-03-01T12:17:49;7.50;99.90
19330;DHT22;9799;48.214;16.388;2023-03-01T12:21:24;7.90;99.90
19330;DHT22;9799;48.214;16.388;2023-03-01T12:28:55;8.10;99.90
19330;DHT22;9799;48.214;16.388;2023-03-01T12:32:31;8.10;99.90
19330;DHT22;9799;48.214;16.388;2023-03-01T12:36:31;8.10;99.90
19330;DHT22;9799;48.214;16.388;2023-03-01T12:43:49;8.00;99.90
19330;DHT22;9799;48.214;16.388;2023-03-01T12:47:21;7.90;99.90
19330;DHT22;9799;48.214;16.388;2023-03-01T12:50:49;7.90;99.90
19330;DHT22;9799;48.214;16.388;2023-03-01T12:54:15;8.00;99.90
19330;DHT22;9799;48.214;16.388;2023-03-01T12:57:40;7.90;99.90
19330;DHT22;9799;48.214;16.388;2023-03-01T13:01:13;8.20;99.90
19330;DHT22;9799;48.214;16.388;2023-03-01T13:04:50;8.20;99.90
19330;DHT22;9799;48.214;16.388;2023-03-01T13:08:16;8.20;99.90
19330;DHT22;9799;48.214;16.388;2023-03-01T13:11:43;8.20;99.90
19330;DHT22;9799;48.214;16.388;2023-03-01T13:15:13;8.10;99.90
19330;DHT22;9799;48.214;16.388;2023-03-01T13:18:45;8.00;99.90
19330;DHT22;9799;48.214;16.388;2023-03-01T13:22:25;8.20;99.90
19330;DHT22;9799;48.214;16.388;2023-03-01T13:26:03;8.40;99.90
19330;DHT22;9799;48.214;16.388;2023-03-01T13:29:43;8.40;99.90
19330;DHT22;9799;48.214;16.388;2023-03-01T13:33:45;8.20;99.90
19330;DHT22;9799;48.214;16.388;2023-03-01T13:37:10;8.20;99.90
19330;DHT22;9799;48.214;16.388;2023-03-01T13:40:59;8.50;99.90
19330;DHT22;9799;48.214;16.388;2023-03-01T13:44:24;8.50;99.90
19330;DHT22;9799;48.214;16.388;2023-03-01T13:47:52;8.60;99.90
19330;DHT22;9799;48.214;16.388;2023-03-01T13:51:14;8.50;99.90
19330;DHT22;9799;48.214;16.388;2023-03-01T13:54:35;8.30;99.90
19330;DHT22;9799;48.214;16.388;2023-03-01T13:58:01;8.40;99.90
19330;DHT22;9799;48.214;16.388;2023-03-01T14:01:28;8.30;99.90
19330;DHT22;9799;48.214;16.388;2023-03-01T14:04:58;8.30;99.90
19330;DHT22;9799;48.214;16.388;2023-03-01T14:08:24;8.40;99.90
19330;DHT22;9799;48.214;16.388;2023-03-01T14:12:13;8.50;99.90
19330;DHT22;9799;48.214;16.388;2023-03-01T14:15:41;8.50;99.90
19330;DHT22;9799;48.214;16.388;2023-03-01T14:19:15;8.50;99.90
19330;DHT22;9799;48.214;16.388;2023-03-01T14:22:41;8.60;99.90
19330;DHT22;9799;48.214;16.388;2023-03-01T14:26:02;8.40;99.90
19330;DHT22;9799;48.214;16.388;2023-03-01T14:29:26;8.40;99.90
19330;DHT22;9799;48.214;16.388;2023-03-01T14:32:52;8.40;99.90
19330;DHT22;9799;48.214;16.388;2023-03-01T14:36:14;8.30;99.90
19330;DHT22;9799;48.214;16.388;2023-03-01T14:39:36;8.30;99.90
19330;DHT22;9799;48.214;16.388;2023-03-01T14:43:00;8.40;99.90
19330;DHT22;9799;48.214;16.388;2023-03-01T14:46:24;8.50;99.90
19330;DHT22;9799;48.214;16.388;2023-03-01T14:49:47;8.50;99.90
19330;DHT22;9799;48.214;16.388;2023-03-01T14:53:16;8.30;99.90
19330;DHT22;9799;48.214;16.388;2023-03-01T14:56:46;8.20;99.90
19330;DHT22;9799;48.214;16.388;2023-03-01T15:00:10;8.20;99.90
19330;DHT22;9799;48.214;16.388;2023-03-01T15:03:36;8.20;99.90
19330;DHT22;9799;48.214;16.388;2023-03-01T15:06:57;8.20;99.90
19330;DHT22;9799;48.214;16.388;2023-03-01T15:10:26;8.20;99.90
19330;DHT22;9799;48.214;16.388;2023-03-01T15:13:49;8.30;99.90
19330;DHT22;9799;48.214;16.388;2023-03-01T15:17:30;8.30;99.90
19330;DHT22;9799;48.214;16.388;2023-03-01T15:20:52;8.30;99.90
19330;DHT22;9799;48.214;16.388;2023-03-01T15:24:18;8.30;99.90
19330;DHT22;9799;48.214;16.388;2023-03-01T15:27:45;8.30;99.90
19330;DHT22;9799;48.214;16.388;2023-03-01T15:31:18;8.40;99.90
19330;DHT22;9799;48.214;16.388;2023-03-01T15:34:40;8.60;99.90
19330;DHT22;9799;48.214;16.388;2023-03-01T15:38:02;8.60;99.90
19330;DHT22;9799;48.214;16.388;2023-03-01T15:41:25;8.50;99.90
19330;DHT22;9799;48.214;16.388;2023-03-01T15:44:47;8.50;99.90
19330;DHT22;9799;48.214;16.388;2023-03-01T15:48:18;8.40;99.90
19330;DHT22;9799;48.214;16.388;2023-03-01T15:51:40;8.30;99.90
19330;DHT22;9799;48.214;16.388;2023-03-01T15:55:03;8.20;99.90
19330;DHT22;9799;48.214;16.388;2023-03-01T15:58:25;8.20;99.90
19330;DHT22;9799;48.214;16.388;2023-03-01T16:01:46;8.10;99.90
19330;DHT22;9799;48.214;16.388;2023-03-01T16:05:16;8.20;99.90
19330;DHT22;9799;48.214;16.388;2023-03-01T16:08:38;8.20;99.90
19330;DHT22;9799;48.214;16.388;2023-03-01T16:12:00;8.30;99.90
19330;DHT22;9799;48.214;16.388;2023-03-01T16:15:23;8.20;99.90
19330;DHT22;9799;48.214;16.388;2023-03-01T16:18:46;8.10;99.90
19330;DHT22;9799;48.214;16.388;2023-03-01T16:22:09;8.10;99.90
19330;DHT22;9799;48.214;16.388;2023-03-01T16:25:32;8.10;99.90
19330;DHT22;9799;48.214;16.388;2023-03-01T16:28:55;8.10;99.90
19330;DHT22;9799;48.214;16.388;2023-03-01T16:32:18;8.10;99.90
19330;DHT22;9799;48.214;16.388;2023-03-01T16:35:40;8.10;99.90
19330;DHT22;9799;48.214;16.388;2023-03-01T16:39:03;8.00;99.90
19330;DHT22;9799;48.214;16.388;2023-03-01T16:42:24;8.10;99.90
19330;DHT22;9799;48.214;16.388;2023-03-01T16:45:46;8.10;99.90
19330;DHT22;9799;48.214;16.388;2023-03-01T16:49:07;8.30;99.90
19330;DHT22;9799;48.214;16.388;2023-03-01T16:52:30;8.30;99.90
19330;DHT22;9799;48.214;16.388;2023-03-01T16:55:55;8.20;99.90
19330;DHT22;9799;48.214;16.388;2023-03-01T16:59:17;8.20;99.90
19330;DHT22;9799;48.214;16.388;2023-03-01T17:02:39;8.20;99.90
19330;DHT22;9799;48.214;16.388;2023-03-01T17:06:02;8.20;99.90
19330;DHT22;9799;48.214;16.388;2023-03-01T17:09:24;8.10;99.90
19330;DHT22;9799;48.214;16.388;2023-03-01T17:12:49;8.10;99.90
19330;DHT22;9799;48.214;16.388;2023-03-01T17:16:13;8.20;99.90
19330;DHT22;9799;48.214;16.388;2023-03-01T17:19:36;8.30;99.90
19330;DHT22;9799;48.214;16.388;2023-03-01T17:23:00;8.30;99.90
19330;DHT22;9799;48.214;16.388;2023-03-01T17:26:22;8.30;99.90
19330;DHT22;9799;48.214;16.388;2023-03-01T17:29:46;8.40;99.90
19330;DHT22;9799;48.214;16.388;2023-03-01T17:33:08;8.40;99.90
19330;DHT22;9799;48.214;16.388;2023-03-01T17:36:30;8.40;99.90
19330;DHT22;9799;48.214;16.388;2023-03-01T17:39:53;8.40;99.90
19330;DHT22;9799;48.214;16.388;2023-03-01T17:43:16;8.30;99.90
19330;DHT22;9799;48.214;16.388;2023-03-01T17:46:39;8.30;99.90
19330;DHT22;9799;48.214;16.388;2023-03-01T17:50:01;8.30;99.90
19330;DHT22;9799;48.214;16.388;2023-03-01T17:53:24;8.20;99.90
19330;DHT22;9799;48.214;16.388;2023-03-01T17:56:46;8.10;99.90
19330;DHT22;9799;48.214;16.388;2023-03-01T18:00:11;8.20;99.90
19330;DHT22;9799;48.214;16.388;2023-03-01T18:03:35;8.10;99.90
19330;DHT22;9799;48.214;16.388;2023-03-01T18:06:57;8.10;99.90
19330;DHT22;9799;48.214;16.388;2023-03-01T18:10:19;8.10;99.90
19330;DHT22;9799;48.214;16.388;2023-03-01T18:13:41;8.10;99.90
19330;DHT22;9799;48.214;16.388;2023-03-01T18:17:03;8.10;99.90
19330;DHT22;9799;48.214;16.388;2023-03-01T18:20:31;8.10;99.90
19330;DHT22;9799;48.214;16.388;2023-03-01T18:23:54;8.10;99.90
19330;DHT22;9799;48.214;16.388;2023-03-01T18:27:16;8.10;99.90
19330;DHT22;9799;48.214;16.388;2023-03-01T18:30:38;8.10;99.90
19330;DHT22;9799;48.214;16.388;2023-03-01T18:34:00;8.10;99.90
19330;DHT22;9799;48.214;16.388;2023-03-01T18:37:24;8.00;99.90
19330;DHT22;9799;48.214;16.388;2023-03-01T18:40:46;8.00;99.90
19330;DHT22;9799;48.214;16.388;2023-03-01T18:44:09;8.00;99.90
19330;DHT22;9799;48.214;16.388;2023-03-01T18:47:31;7.90;99.90
19330;DHT22;9799;48.214;16.388;2023-03-01T18:50:53;7.90;99.90
19330;DHT22;9799;48.214;16.388;2023-03-01T18:54:18;7.90;99.90
19330;DHT22;9799;48.214;16.388;2023-03-01T18:57:40;7.90;99.90
19330;DHT22;9799;48.214;16.388;2023-03-01T19:01:02;7.90;99.90
19330;DHT22;9799;48.214;16.388;2023-03-01T19:04:27;7.80;99.90
19330;DHT22;9799;48.214;16.388;2023-03-01T19:07:50;7.70;99.90
19330;DHT22;9799;48.214;16.388;2023-03-01T19:11:14;7.70;99.90
19330;DHT22;9799;48.214;16.388;2023-03-01T19:14:36;7.70;99.90
19330;DHT22;9799;48.214;16.388;2023-03-01T19:17:59;7.70;99.90
19330;DHT22;9799;48.214;16.388;2023-03-01T19:21:23;7.70;99.90
19330;DHT22;9799;48.214;16.388;2023-03-01T19:24:46;7.60;99.90
19330;DHT22;9799;48.214;16.388;2023-03-01T19:28:10;7.70;99.90
19330;DHT22;9799;48.214;16.388;2023-03-01T19:31:32;7.60;99.90
19330;DHT22;9799;48.214;16.388;2023-03-01T19:34:54;7.70;99.90
19330;DHT22;9799;48.214;16.388;2023-03-01T19:38:17;7.70;99.90
19330;DHT22;9799;48.214;16.388;2023-03-01T19:41:39;7.60;99.90
19330;DHT22;9799;48.214;16.388;2023-03-01T19:45:04;7.60;99.90
19330;DHT22;9799;48.214;16.388;2023-03-01T19:48:27;7.50;99.90
19330;DHT22;9799;48.214;16.388;2023-03-01T19:51:50;7.50;99.90
19330;DHT22;9799;48.214;16.388;2023-03-01T19:55:12;7.50;99.90
19330;DHT22;9799;48.214;16.388;2023-03-01T19:58:37;7.50;99.90
19330;DHT22;9799;48.214;16.388;2023-03-01T20:02:13;7.40;99.90
19330;DHT22;9799;48.214;16.388;2023-03-01T20:05:37;7.40;99.90
19330;DHT22;9799;48.214;16.388;2023-03-01T20:09:01;7.40;99.90
19330;DHT22;9799;48.214;16.388;2023-03-01T20:12:23;7.40;99.90
19330;DHT22;9799;48.214;16.388;2023-03-01T20:15:45;7.30;99.90
19330;DHT22;9799;48.214;16.388;2023-03-01T20:19:09;7.20;99.90
19330;DHT22;9799;48.214;16.388;2023-03-01T20:22:31;7.00;99.90
19330;DHT22;9799;48.214;16.388;2023-03-01T20:26:02;7.10;99.90
19330;DHT22;9799;48.214;16.388;2023-03-01T20:29:25;7.10;99.90
19330;DHT22;9799;48.214;16.388;2023-03-01T20:32:48;7.10;99.90
19330;DHT22;9799;48.214;16.388;2023-03-01T20:36:12;7.00;99.90
19330;DHT22;9799;48.214;16.388;2023-03-01T20:39:34;6.90;99.90
19330;DHT22;9799;48.214;16.388;2023-03-01T20:42:56;6.80;99.90
19330;DHT22;9799;48.214;16.388;2023-03-01T20:46:19;6.80;99.90
19330;DHT22;9799;48.214;16.388;2023-03-01T20:49:42;6.80;99.90
19330;DHT22;9799;48.214;16.388;2023-03-01T20:53:07;6.80;99.90
19330;DHT22;9799;48.214;16.388;2023-03-01T20:56:29;6.90;99.90
19330;DHT22;9799;48.214;16.388;2023-03-01T20:59:52;6.90;99.90
19330;DHT22;9799;48.214;16.388;2023-03-01T21:03:14;6.90;99.90
19330;DHT22;9799;48.214;16.388;2023-03-01T21:06:36;6.90;99.90
19330;DHT22;9799;48.214;16.388;2023-03-01T21:09:59;6.90;99.90
19330;DHT22;9799;48.214;16.388;2023-03-01T21:13:20;6.80;99.90
19330;DHT22;9799;48.214;16.388;2023-03-01T21:16:42;6.90;99.90
19330;DHT22;9799;48.214;16.388;2023-03-01T21:20:05;6.90;99.90
19330;DHT22;9799;48.214;16.388;2023-03-01T21:23:29;6.90;99.90
19330;DHT22;9799;48.214;16.388;2023-03-01T21:26:52;6.90;99.90
19330;DHT22;9799;48.214;16.388;2023-03-01T21:30:13;6.70;99.90
19330;DHT22;9799;48.214;16.388;2023-03-01T21:33:35;6.50;99.90
19330;DHT22;9799;48.214;16.388;2023-03-01T21:36:57;6.40;99.90
19330;DHT22;9799;48.214;16.388;2023-03-01T21:40:19;6.60;99.90
19330;DHT22;9799;48.214;16.388;2023-03-01T21:43:43;6.50;99.90
19330;DHT22;9799;48.214;16.388;2023-03-01T21:47:05;6.60;99.90
19330;DHT22;9799;48.214;16.388;2023-03-01T21:50:26;6.50;99.90
19330;DHT22;9799;48.214;16.388;2023-03-01T21:53:47;6.50;99.90
19330;DHT22;9799;48.214;16.388;2023-03-01T21:57:10;6.50;99.90